Time;durP1;ratioP1;P1;durP2;ratioP2;P2;SDS_P1;SDS_P2;PMS_P1;PMS_P2;Temp;Humidity;BMP_temperature;BMP_pressure;BME280_temperature;BME280_humidity;BME280_pressure;Samples;Min_cycle;Max_cycle;Signal;HPM_P1;HPM_P2
2021/09/08 00:00:42;;;;;;;13.43;12.00;;;15.90;97.40;;;;;;5101716;28;20444;-45
2021/09/08 00:03:08;;;;;;;12.80;11.70;;;15.90;97.50;;;;;;5101710;28;20457;-45
2021/09/08 00:05:34;;;;;;;14.33;12.93;;;15.80;97.40;;;;;;5101109;28;20256;-45
2021/09/08 00:08:00;;;;;;;14.18;12.88;;;15.80;97.50;;;;;;5101239;28;20476;-45
2021/09/08 00:10:26;;;;;;;14.63;13.20;;;15.80;97.70;;;;;;5101628;28;20172;-45
2021/09/08 00:12:51;;;;;;;13.90;12.60;;;15.80;97.70;;;;;;5101107;28;20271;-43
2021/09/08 00:15:20;;;;;;;14.37;12.50;;;15.70;97.70;;;;;;5101554;28;20211;-43
2021/09/08 00:17:46;;;;;;;13.40;12.10;;;15.70;98.00;;;;;;5101419;28;20516;-43
2021/09/08 00:20:12;;;;;;;14.40;13.00;;;15.70;97.80;;;;;;5100011;28;20414;-43
2021/09/08 00:22:38;;;;;;;14.00;12.70;;;15.60;97.90;;;;;;5100203;28;20429;-43
2021/09/08 00:25:06;;;;;;;15.10;13.30;;;15.60;97.90;;;;;;5100406;28;20847;-42
2021/09/08 00:27:32;;;;;;;14.40;12.90;;;15.60;98.00;;;;;;5100979;28;20437;-43
2021/09/08 00:29:58;;;;;;;13.30;12.10;;;15.60;97.90;;;;;;5100000;28;20832;-43
2021/09/08 00:32:24;;;;;;;13.90;12.50;;;15.50;97.80;;;;;;5101043;28;20221;-43
2021/09/08 00:34:50;;;;;;;13.80;12.40;;;15.60;97.90;;;;;;5100781;28;20515;-43
2021/09/08 00:37:15;;;;;;;14.47;13.17;;;15.60;97.80;;;;;;5100313;28;20566;-43
2021/09/08 00:39:41;;;;;;;14.93;13.43;;;15.50;97.80;;;;;;5100977;28;20446;-43
2021/09/08 00:42:11;;;;;;;14.10;12.67;;;15.50;98.00;;;;;;5100562;28;20180;-43
2021/09/08 00:44:38;;;;;;;15.07;13.73;;;15.50;98.20;;;;;;5100605;28;20208;-43
2021/09/08 00:47:03;;;;;;;14.90;13.43;;;15.50;98.00;;;;;;5100829;28;20555;-43
2021/09/08 00:49:29;;;;;;;14.50;13.20;;;15.50;97.90;;;;;;5100851;28;20501;-43
2021/09/08 00:51:56;;;;;;;28.23;13.60;;;15.50;98.10;;;;;;5100299;28;20547;-43
2021/09/08 00:54:23;;;;;;;15.15;13.75;;;15.50;97.90;;;;;;5100444;28;20234;-43
2021/09/08 00:56:54;;;;;;;14.83;13.03;;;15.50;98.00;;;;;;5100652;28;20222;-43
2021/09/08 00:59:20;;;;;;;15.30;13.70;;;15.40;98.10;;;;;;5100333;28;20836;-43
2021/09/08 01:01:46;;;;;;;12.87;11.67;;;15.40;98.10;;;;;;5100105;28;20445;-46
2021/09/08 01:04:15;;;;;;;15.03;13.53;;;15.40;98.10;;;;;;5100180;28;20299;-44
2021/09/08 01:06:41;;;;;;;14.37;12.97;;;15.30;98.10;;;;;;5099867;28;20509;-44
2021/09/08 01:09:07;;;;;;;14.47;13.17;;;15.30;98.10;;;;;;5100353;28;20442;-43
2021/09/08 01:11:36;;;;;;;14.63;13.23;;;15.30;98.20;;;;;;5100392;28;20229;-44
2021/09/08 01:14:02;;;;;;;14.32;13.02;;;15.30;98.20;;;;;;5100531;28;20180;-42
2021/09/08 01:16:28;;;;;;;14.27;12.87;;;15.30;98.30;;;;;;5100191;28;20262;-43
2021/09/08 01:18:53;;;;;;;14.13;12.80;;;15.20;98.30;;;;;;5099893;28;20829;-43
2021/09/08 01:21:19;;;;;;;13.67;12.27;;;15.20;98.30;;;;;;5099604;28;20440;-43
2021/09/08 01:23:45;;;;;;;14.77;13.30;;;15.20;98.40;;;;;;5100098;28;20598;-43
2021/09/08 01:26:11;;;;;;;15.03;13.63;;;15.10;98.30;;;;;;5099233;28;20208;-43
2021/09/08 01:28:37;;;;;;;14.30;13.00;;;15.00;98.40;;;;;;5099268;28;20407;-43
2021/09/08 01:31:04;;;;;;;14.60;13.20;;;15.00;98.50;;;;;;5099881;28;20463;-43
2021/09/08 01:33:31;;;;;;;14.80;13.30;;;15.00;98.60;;;;;;5099888;28;20491;-43
2021/09/08 01:36:27;;;;;;;13.97;12.77;;;14.90;98.60;;;;;;5099680;28;20202;-43
2021/09/08 01:38:53;;;;;;;14.40;13.20;;;14.90;98.70;;;;;;5099587;28;20471;-44
2021/09/08 01:41:18;;;;;;;14.70;13.40;;;14.90;98.70;;;;;;5099954;28;20414;-44
2021/09/08 01:43:45;;;;;;;15.23;13.83;;;14.90;98.80;;;;;;5099442;28;20457;-44
2021/09/08 01:46:21;;;;;;;14.80;13.27;;;14.90;98.90;;;;;;5099485;28;20546;-44
2021/09/08 01:48:47;;;;;;;14.40;13.05;;;14.90;99.00;;;;;;5098855;28;20941;-44
2021/09/08 01:51:13;;;;;;;14.67;13.33;;;14.90;99.00;;;;;;5098600;28;20255;-44
2021/09/08 01:53:39;;;;;;;14.23;12.90;;;14.90;98.90;;;;;;5098889;28;20851;-44
2021/09/08 01:56:05;;;;;;;14.50;13.20;;;14.90;98.80;;;;;;5098903;28;20414;-44
2021/09/08 01:58:31;;;;;;;15.07;13.60;;;14.90;98.80;;;;;;5098064;28;20444;-44
2021/09/08 02:00:57;;;;;;;14.20;12.80;;;14.90;98.70;;;;;;5098845;28;20425;-44
2021/09/08 02:03:23;;;;;;;12.70;11.50;;;14.90;98.70;;;;;;5098520;28;20352;-44
2021/09/08 02:05:49;;;;;;;14.20;12.93;;;14.90;98.60;;;;;;5099405;28;20884;-44
2021/09/08 02:08:15;;;;;;;13.37;12.10;;;14.80;98.60;;;;;;5099332;28;20445;-44
2021/09/08 02:10:40;;;;;;;14.60;13.17;;;14.80;98.60;;;;;;5098941;28;20468;-44
2021/09/08 02:13:06;;;;;;;15.20;13.80;;;14.80;98.50;;;;;;5098739;28;20172;-44
2021/09/08 02:15:32;;;;;;;13.70;12.40;;;14.80;98.60;;;;;;5099033;28;20433;-44
2021/09/08 02:17:58;;;;;;;14.57;12.93;;;14.80;98.80;;;;;;5080945;28;20217;-44
2021/09/08 02:20:24;;;;;;;14.40;13.10;;;14.70;98.70;;;;;;5098842;28;20430;-44
2021/09/08 02:22:50;;;;;;;14.13;12.67;;;14.70;98.70;;;;;;5098461;28;20265;-44
2021/09/08 02:25:16;;;;;;;12.60;11.40;;;14.70;98.70;;;;;;5099041;28;20170;-44
2021/09/08 02:27:41;;;;;;;15.43;13.70;;;14.70;98.60;;;;;;5098150;28;20168;-44
2021/09/08 02:30:08;;;;;;;14.53;13.03;;;14.60;98.50;;;;;;5098391;28;20720;-44
2021/09/08 02:32:34;;;;;;;14.27;12.80;;;14.60;98.50;;;;;;5098050;28;20263;-44
2021/09/08 02:35:00;;;;;;;15.63;12.63;;;14.60;98.70;;;;;;5098869;28;20434;-44
2021/09/08 02:37:25;;;;;;;14.57;13.27;;;14.60;98.70;;;;;;5098210;28;20414;-44
2021/09/08 02:39:51;;;;;;;16.40;14.40;;;14.60;98.80;;;;;;5098456;28;20414;-44
2021/09/08 02:42:17;;;;;;;14.67;13.27;;;14.60;98.90;;;;;;5098455;28;20566;-44
2021/09/08 02:44:43;;;;;;;16.07;14.50;;;14.60;98.80;;;;;;5098229;28;20300;-43
2021/09/08 02:47:10;;;;;;;19.10;13.93;;;14.50;98.70;;;;;;5098494;28;20267;-44
2021/09/08 02:49:36;;;;;;;15.00;13.50;;;14.40;98.70;;;;;;5098321;28;20863;-44
2021/09/08 02:52:02;;;;;;;15.00;13.47;;;14.40;98.90;;;;;;5098404;28;20450;-44
2021/09/08 02:54:28;;;;;;;15.40;13.90;;;14.40;99.00;;;;;;5097861;28;20619;-44
2021/09/08 02:56:54;;;;;;;15.60;14.17;;;14.40;99.20;;;;;;5098362;28;20418;-42
2021/09/08 02:59:19;;;;;;;15.07;13.63;;;14.40;99.20;;;;;;5098359;28;20418;-44
2021/09/08 03:01:45;;;;;;;15.27;13.77;;;14.40;99.00;;;;;;5098241;28;20535;-44
2021/09/08 03:04:11;;;;;;;15.10;13.40;;;14.40;99.10;;;;;;5097929;28;20211;-44
2021/09/08 03:06:36;;;;;;;14.80;13.30;;;14.30;99.10;;;;;;5098141;28;20180;-44
2021/09/08 03:09:02;;;;;;;14.87;13.47;;;14.30;99.10;;;;;;5098179;28;20492;-44
2021/09/08 03:11:28;;;;;;;14.30;12.90;;;14.30;99.10;;;;;;5098155;28;20176;-44
2021/09/08 03:13:54;;;;;;;15.83;14.43;;;14.30;99.10;;;;;;5097972;28;20192;-44
2021/09/08 03:16:20;;;;;;;15.20;13.70;;;14.20;99.00;;;;;;5098408;28;20173;-44
2021/09/08 03:18:45;;;;;;;14.43;13.03;;;14.20;99.00;;;;;;5098128;28;20669;-44
2021/09/08 03:21:11;;;;;;;14.13;12.83;;;14.20;98.90;;;;;;5097925;28;20172;-43
2021/09/08 03:23:37;;;;;;;15.27;13.77;;;14.20;98.90;;;;;;5097965;28;20349;-44
2021/09/08 03:26:03;;;;;;;15.10;13.70;;;14.20;99.00;;;;;;5097713;28;20188;-44
2021/09/08 03:28:28;;;;;;;14.67;13.27;;;14.10;98.90;;;;;;5097389;28;20443;-44
2021/09/08 03:30:54;;;;;;;14.37;12.97;;;14.10;99.00;;;;;;5097887;28;20282;-43
2021/09/08 03:33:20;;;;;;;13.83;12.50;;;14.10;99.00;;;;;;5097888;28;20173;-44
2021/09/08 03:35:45;;;;;;;14.60;13.23;;;14.10;98.80;;;;;;5096891;28;20406;-44
2021/09/08 03:38:11;;;;;;;15.50;14.00;;;14.10;98.80;;;;;;5097659;28;20563;-44
2021/09/08 03:40:38;;;;;;;14.02;12.65;;;14.10;98.80;;;;;;5098144;28;20215;-44
2021/09/08 03:43:04;;;;;;;13.77;12.57;;;14.00;99.10;;;;;;5097736;28;20206;-44
2021/09/08 03:45:29;;;;;;;14.63;13.23;;;14.00;99.00;;;;;;5097020;28;20415;-45
2021/09/08 03:47:55;;;;;;;14.27;12.87;;;14.00;99.00;;;;;;5097695;28;20472;-44
2021/09/08 03:50:21;;;;;;;15.90;14.27;;;14.00;99.00;;;;;;5097628;28;20585;-44
2021/09/08 03:52:47;;;;;;;13.30;12.03;;;13.90;99.00;;;;;;5096562;28;20172;-44
2021/09/08 03:55:12;;;;;;;16.43;13.37;;;13.90;99.00;;;;;;5096448;28;20418;-44
2021/09/08 03:57:38;;;;;;;15.23;13.83;;;13.90;99.10;;;;;;5095509;28;20277;-44
2021/09/08 04:00:06;;;;;;;14.33;13.03;;;13.90;99.10;;;;;;5096892;28;20530;-44
2021/09/08 04:02:32;;;;;;;15.07;13.57;;;13.80;99.00;;;;;;5096242;28;20192;-46
2021/09/08 04:04:58;;;;;;;15.50;14.00;;;13.80;99.00;;;;;;5094681;28;20848;-46
2021/09/08 04:07:27;;;;;;;15.57;13.00;;;13.80;98.80;;;;;;5096860;28;20502;-46
2021/09/08 04:09:53;;;;;;;15.90;14.30;;;13.80;99.00;;;;;;5097774;28;20414;-46
2021/09/08 04:12:19;;;;;;;14.20;12.90;;;13.80;99.20;;;;;;5096850;28;20421;-46
2021/09/08 04:14:45;;;;;;;14.47;13.10;;;13.80;99.20;;;;;;5100852;28;20415;-46
2021/09/08 04:17:10;;;;;;;16.03;14.33;;;13.70;99.20;;;;;;5100432;28;20263;-46
2021/09/08 04:19:36;;;;;;;15.03;13.53;;;13.70;99.20;;;;;;5100905;28;20181;-46
2021/09/08 04:22:02;;;;;;;15.27;13.90;;;13.70;99.30;;;;;;5101380;28;20199;-46
2021/09/08 04:24:28;;;;;;;15.97;14.57;;;13.70;99.40;;;;;;5099593;28;20461;-46
2021/09/08 04:26:53;;;;;;;15.07;13.57;;;13.60;99.20;;;;;;5101186;28;20422;-46
2021/09/08 04:29:19;;;;;;;15.50;14.00;;;13.60;99.40;;;;;;5100243;28;20173;-46
2021/09/08 04:31:45;;;;;;;16.10;14.60;;;13.60;99.40;;;;;;5099225;28;20502;-46
2021/09/08 04:34:10;;;;;;;16.23;14.53;;;13.50;99.40;;;;;;5099585;28;20476;-46
2021/09/08 04:36:36;;;;;;;16.87;15.17;;;13.50;99.50;;;;;;5099686;28;20172;-46
2021/09/08 04:39:03;;;;;;;19.30;14.20;;;13.50;99.50;;;;;;5099517;28;20176;-45
2021/09/08 04:41:29;;;;;;;19.00;14.07;;;13.50;99.30;;;;;;5099423;28;20245;-45
2021/09/08 04:43:55;;;;;;;15.80;14.07;;;13.40;99.30;;;;;;5099176;28;20802;-46
2021/09/08 04:46:20;;;;;;;15.85;14.25;;;13.40;99.40;;;;;;5099204;28;20190;-46
2021/09/08 04:48:46;;;;;;;14.87;13.47;;;13.40;99.40;;;;;;5099699;28;20172;-46
2021/09/08 04:51:12;;;;;;;15.10;13.60;;;13.40;99.50;;;;;;5100115;28;20208;-46
2021/09/08 04:53:37;;;;;;;15.57;13.97;;;13.40;99.50;;;;;;5098317;28;21112;-46
2021/09/08 04:56:03;;;;;;;15.00;13.50;;;13.40;99.40;;;;;;5099402;28;20219;-46
2021/09/08 04:58:29;;;;;;;16.00;14.30;;;13.40;99.40;;;;;;5100487;28;20197;-46
2021/09/08 05:00:55;;;;;;;15.27;13.77;;;13.40;99.30;;;;;;5100667;28;20472;-46
2021/09/08 05:03:20;;;;;;;16.07;14.10;;;13.40;99.30;;;;;;5099096;28;20594;-46
2021/09/08 05:05:46;;;;;;;17.60;15.90;;;13.40;99.40;;;;;;5100242;28;20188;-46
2021/09/08 05:08:12;;;;;;;15.67;14.17;;;13.40;99.30;;;;;;5100272;28;20176;-46
2021/09/08 05:10:38;;;;;;;16.40;14.80;;;13.40;99.30;;;;;;5100354;28;20195;-46
2021/09/08 05:13:04;;;;;;;15.27;13.83;;;13.40;99.30;;;;;;5099048;28;20419;-46
2021/09/08 05:15:30;;;;;;;15.23;13.70;;;13.40;99.30;;;;;;5078437;28;20556;-46
2021/09/08 05:17:56;;;;;;;18.90;15.73;;;13.40;99.20;;;;;;5078402;28;20426;-46
2021/09/08 05:20:22;;;;;;;15.77;14.20;;;13.50;99.20;;;;;;5078637;28;20177;-46
2021/09/08 05:22:49;;;;;;;16.67;15.07;;;13.50;99.10;;;;;;5078169;28;20784;-46
2021/09/08 05:25:15;;;;;;;15.43;13.93;;;13.50;99.10;;;;;;5079201;28;20522;-46
2021/09/08 05:27:42;;;;;;;14.83;13.33;;;13.50;99.10;;;;;;5077523;28;20810;-46
2021/09/08 05:30:08;;;;;;;16.47;14.77;;;13.60;99.10;;;;;;5077977;28;20200;-47
2021/09/08 05:32:34;;;;;;;17.77;15.23;;;13.60;99.00;;;;;;5078539;28;20463;-46
2021/09/08 05:35:00;;;;;;;17.13;14.53;;;13.60;98.90;;;;;;5078555;28;20462;-46
2021/09/08 05:37:26;;;;;;;17.23;15.50;;;13.70;98.80;;;;;;5078057;28;20178;-46
2021/09/08 05:39:52;;;;;;;15.70;14.30;;;13.70;98.70;;;;;;5078131;28;20290;-46
2021/09/08 05:42:17;;;;;;;16.07;14.50;;;13.80;98.80;;;;;;5077669;28;20180;-46
2021/09/08 05:44:43;;;;;;;15.93;14.13;;;13.80;98.80;;;;;;5078204;28;20200;-46
2021/09/08 05:47:09;;;;;;;15.80;13.63;;;13.90;98.80;;;;;;5078333;28;20475;-46
2021/09/08 05:49:35;;;;;;;18.02;16.20;;;13.90;98.50;;;;;;5075752;28;20165;-47
2021/09/08 05:52:02;;;;;;;14.80;13.30;;;14.00;98.70;;;;;;5077567;28;20230;-46
2021/09/08 05:54:28;;;;;;;16.27;14.57;;;14.10;98.70;;;;;;5077738;28;20333;-46
2021/09/08 05:56:54;;;;;;;16.25;14.52;;;14.20;98.70;;;;;;5077309;28;20498;-46
2021/09/08 05:59:20;;;;;;;16.30;14.70;;;14.40;98.60;;;;;;5076990;28;20185;-46
2021/09/08 06:01:45;;;;;;;18.23;16.10;;;14.50;98.50;;;;;;5078292;28;20423;-46
2021/09/08 06:04:11;;;;;;;16.37;14.77;;;14.60;98.30;;;;;;5078099;28;20201;-45
2021/09/08 06:06:38;;;;;;;27.33;15.40;;;14.80;98.20;;;;;;5077648;28;20597;-47
2021/09/08 06:09:05;;;;;;;16.80;14.90;;;14.90;98.00;;;;;;5077480;28;20462;-47
2021/09/08 06:11:31;;;;;;;16.63;14.83;;;14.90;97.70;;;;;;5077815;28;20412;-46
2021/09/08 06:13:57;;;;;;;17.10;15.30;;;15.10;97.90;;;;;;5077197;28;20683;-45
2021/09/08 06:16:23;;;;;;;16.97;15.17;;;15.30;97.70;;;;;;5077050;28;20177;-46
2021/09/08 06:18:48;;;;;;;16.93;15.10;;;15.40;97.60;;;;;;5077061;28;20857;-46
2021/09/08 06:21:14;;;;;;;16.73;15.03;;;15.60;97.50;;;;;;5076092;28;20752;-46
2021/09/08 06:23:40;;;;;;;17.20;14.80;;;15.70;97.30;;;;;;5075430;28;20211;-46
2021/09/08 06:26:05;;;;;;;16.67;15.00;;;15.90;97.30;;;;;;5075350;28;20462;-46
2021/09/08 06:28:31;;;;;;;16.07;14.47;;;16.00;97.10;;;;;;5075778;28;20184;-46
2021/09/08 06:30:57;;;;;;;15.17;13.67;;;16.10;97.00;;;;;;5075138;28;20465;-46
2021/09/08 06:33:23;;;;;;;20.00;17.00;;;16.30;96.90;;;;;;5072385;28;20269;-46
2021/09/08 06:35:52;;;;;;;15.60;14.00;;;16.50;96.70;;;;;;5074610;28;20172;-46
2021/09/08 06:38:18;;;;;;;17.10;15.30;;;16.80;96.30;;;;;;5076626;28;20169;-46
2021/09/08 06:40:43;;;;;;;15.83;14.23;;;17.10;95.40;;;;;;5075595;28;20806;-46
2021/09/08 06:43:09;;;;;;;15.80;14.30;;;17.30;94.90;;;;;;5075791;28;20495;-46
2021/09/08 06:45:35;;;;;;;15.40;13.77;;;17.60;94.30;;;;;;5077511;28;20498;-46
2021/09/08 06:48:01;;;;;;;16.23;14.63;;;17.80;93.80;;;;;;5076534;28;20184;-46
2021/09/08 06:50:27;;;;;;;14.70;13.40;;;18.10;93.10;;;;;;5077171;28;20420;-46
2021/09/08 06:52:52;;;;;;;16.27;14.60;;;18.30;92.90;;;;;;5077269;28;20216;-46
2021/09/08 06:55:18;;;;;;;16.40;13.67;;;18.50;92.00;;;;;;5077638;28;20238;-48
2021/09/08 06:57:44;;;;;;;17.17;12.70;;;18.70;91.70;;;;;;5077517;28;20489;-46
2021/09/08 07:00:11;;;;;;;15.13;13.53;;;18.90;91.60;;;;;;5075238;28;20427;-47
2021/09/08 07:02:36;;;;;;;17.10;13.25;;;19.00;91.60;;;;;;5075394;28;20502;-46
2021/09/08 07:05:03;;;;;;;16.00;12.20;;;19.20;90.90;;;;;;5075825;28;20188;-46
2021/09/08 07:07:29;;;;;;;13.85;12.45;;;19.30;90.80;;;;;;5074627;28;20184;-46
2021/09/08 07:09:54;;;;;;;14.60;12.50;;;19.50;90.30;;;;;;5075175;28;20471;-46
2021/09/08 07:12:20;;;;;;;13.47;12.10;;;19.70;89.90;;;;;;5074697;28;20180;-46
2021/09/08 07:14:46;;;;;;;13.57;12.30;;;19.90;88.60;;;;;;5076167;28;20195;-46
2021/09/08 07:17:12;;;;;;;14.33;12.93;;;20.10;87.10;;;;;;5076675;28;20173;-47
2021/09/08 07:19:37;;;;;;;13.37;12.03;;;20.30;85.10;;;;;;5075635;28;20532;-46
2021/09/08 07:22:03;;;;;;;12.70;11.50;;;20.30;83.50;;;;;;5074483;28;20602;-46
2021/09/08 07:24:29;;;;;;;13.43;12.03;;;20.50;83.00;;;;;;5074704;28;20201;-46
2021/09/08 07:26:57;;;;;;;12.70;11.50;;;20.40;81.30;;;;;;5075546;28;20188;-39
2021/09/08 07:29:24;;;;;;;12.67;11.37;;;20.40;80.70;;;;;;5075374;28;20199;-37
2021/09/08 07:31:50;;;;;;;12.03;10.83;;;20.30;80.70;;;;;;5075451;28;20900;-41
2021/09/08 07:34:16;;;;;;;14.87;12.60;;;20.30;80.50;;;;;;5076004;28;20431;-38
2021/09/08 07:36:42;;;;;;;12.70;11.43;;;20.50;80.20;;;;;;5076841;28;20423;-38
2021/09/08 07:39:08;;;;;;;16.53;12.03;;;20.80;80.00;;;;;;5076585;28;20177;-38
2021/09/08 07:41:34;;;;;;;13.03;11.70;;;21.20;79.20;;;;;;5076214;28;20239;-38
2021/09/08 07:44:00;;;;;;;11.90;10.70;;;21.80;77.30;;;;;;5075275;28;20205;-39
2021/09/08 07:46:25;;;;;;;12.97;11.47;;;22.50;75.40;;;;;;5074083;28;20760;-39
2021/09/08 07:48:51;;;;;;;13.03;11.20;;;23.00;73.10;;;;;;5076681;28;20423;-39
2021/09/08 07:51:17;;;;;;;13.03;10.70;;;23.70;70.40;;;;;;5079057;28;20177;-39
2021/09/08 07:53:43;;;;;;;11.70;10.50;;;24.40;69.20;;;;;;5076077;28;20192;-39
2021/09/08 07:56:08;;;;;;;12.17;10.97;;;25.10;68.40;;;;;;5076817;28;20414;-38
2021/09/08 07:58:34;;;;;;;11.27;10.17;;;26.10;61.20;;;;;;5075063;28;20180;-38
2021/09/08 08:01:00;;;;;;;13.90;10.80;;;26.80;58.20;;;;;;5075685;28;20304;-39
2021/09/08 08:03:26;;;;;;;11.60;9.17;;;26.90;55.90;;;;;;5074928;28;20208;-41
2021/09/08 08:05:51;;;;;;;10.30;9.30;;;27.10;55.50;;;;;;5074098;28;20411;-39
2021/09/08 08:08:18;;;;;;;11.13;10.13;;;26.80;54.50;;;;;;5073850;28;20169;-39
2021/09/08 08:10:45;;;;;;;11.47;10.27;;;26.90;54.20;;;;;;5074380;28;20170;-40
2021/09/08 08:13:10;;;;;;;11.33;10.33;;;26.90;53.10;;;;;;5077529;28;20521;-40
2021/09/08 08:15:36;;;;;;;11.30;10.30;;;26.80;53.00;;;;;;5077381;28;20530;-39
2021/09/08 08:18:02;;;;;;;11.30;10.10;;;27.00;52.10;;;;;;5076676;28;20173;-39
2021/09/08 08:20:28;;;;;;;12.17;9.70;;;27.20;52.20;;;;;;5077165;28;20178;-38
2021/09/08 08:22:53;;;;;;;11.17;10.07;;;27.60;51.50;;;;;;5075833;28;20180;-39
2021/09/08 08:25:27;;;;;;;11.23;10.13;;;27.90;50.90;;;;;;5076345;28;20972;-38
2021/09/08 08:27:53;;;;;;;11.57;10.30;;;28.20;49.50;;;;;;5076431;28;20265;-39
2021/09/08 08:30:19;;;;;;;10.93;9.93;;;27.90;49.00;;;;;;5077136;28;20517;-41
2021/09/08 08:32:45;;;;;;;12.37;9.03;;;27.90;49.30;;;;;;5077412;28;20806;-39
2021/09/08 08:35:11;;;;;;;10.85;9.45;;;28.30;51.20;;;;;;5076552;28;20526;-40
2021/09/08 08:37:36;;;;;;;11.50;10.40;;;29.20;48.40;;;;;;5077350;28;20219;-39
2021/09/08 08:40:04;;;;;;;11.50;9.97;;;29.70;47.90;;;;;;5077209;28;20447;-39
2021/09/08 08:42:31;;;;;;;10.80;9.80;;;30.40;46.30;;;;;;5078239;28;21010;-41
2021/09/08 08:44:56;;;;;;;10.40;9.50;;;30.40;45.60;;;;;;5078690;28;20928;-40
2021/09/08 08:47:22;;;;;;;9.33;8.53;;;30.90;46.40;;;;;;5078652;28;20500;-40
2021/09/08 08:49:49;;;;;;;10.13;9.27;;;31.80;45.30;;;;;;5096098;28;20434;-39
2021/09/08 08:52:15;;;;;;;9.53;8.73;;;32.60;44.90;;;;;;5098477;28;20497;-40
2021/09/08 08:54:41;;;;;;;9.63;8.73;;;33.10;41.90;;;;;;5098652;28;20723;-40
2021/09/08 08:57:10;;;;;;;10.67;9.40;;;33.10;42.70;;;;;;5099628;28;20419;-39
2021/09/08 08:59:37;;;;;;;10.27;9.27;;;33.40;40.90;;;;;;5099046;28;20426;-42
2021/09/08 09:02:21;;;;;;;9.07;8.37;;;33.20;40.20;;;;;;5099526;28;20540;-41
2021/09/08 09:04:49;;;;;;;10.53;9.60;;;32.60;40.70;;;;;;5099469;28;20466;-42
2021/09/08 09:07:24;;;;;;;11.07;10.10;;;32.60;40.90;;;;;;5099437;28;20449;-41
2021/09/08 09:09:52;;;;;;;10.53;9.63;;;32.00;40.90;;;;;;5099677;28;20676;-40
2021/09/08 09:12:18;;;;;;;10.00;9.20;;;31.50;41.30;;;;;;5098326;28;20414;-41
2021/09/08 09:14:47;;;;;;;11.60;10.25;;;31.30;41.60;;;;;;5099427;28;20531;-40
2021/09/08 09:17:13;;;;;;;10.90;9.60;;;30.80;42.30;;;;;;5099566;28;20278;-40
2021/09/08 09:19:50;;;;;;;9.97;9.03;;;30.30;43.40;;;;;;5099481;28;20750;-40
2021/09/08 09:22:20;;;;;;;10.40;9.47;;;30.10;45.90;;;;;;5099496;28;20181;-40
2021/09/08 09:24:51;;;;;;;11.03;10.13;;;30.00;43.90;;;;;;5098645;28;20469;-39
2021/09/08 09:27:17;;;;;;;11.50;10.47;;;29.90;45.40;;;;;;5097952;28;20835;-40
2021/09/08 09:29:44;;;;;;;10.83;9.93;;;30.40;46.10;;;;;;5098491;28;20433;-39
2021/09/08 09:32:13;;;;;;;12.10;11.00;;;30.20;44.00;;;;;;5097213;28;20740;-41
2021/09/08 09:34:40;;;;;;;11.27;10.07;;;29.70;44.80;;;;;;5093510;28;20453;-39
2021/09/08 09:37:07;;;;;;;11.87;10.80;;;29.10;45.30;;;;;;5077055;28;20670;-41
2021/09/08 09:39:36;;;;;;;11.07;9.97;;;28.40;46.60;;;;;;5080762;28;20476;-40
2021/09/08 09:42:07;;;;;;;11.80;10.80;;;28.00;47.70;;;;;;5096858;28;20453;-40
2021/09/08 09:44:33;;;;;;;11.20;10.20;;;27.80;48.80;;;;;;5093017;28;20489;-40
2021/09/08 09:47:02;;;;;;;11.97;10.90;;;27.70;48.10;;;;;;5094798;28;20461;-40
2021/09/08 09:49:32;;;;;;;11.80;10.80;;;27.60;48.50;;;;;;5095056;28;20564;-40
2021/09/08 09:51:58;;;;;;;12.13;11.00;;;27.60;48.40;;;;;;5094554;28;20414;-41
2021/09/08 09:54:24;;;;;;;11.27;10.17;;;27.20;49.20;;;;;;5094686;28;20423;-40
2021/09/08 09:56:53;;;;;;;12.57;11.37;;;27.00;49.40;;;;;;5093628;28;20427;-40
2021/09/08 09:59:19;;;;;;;12.27;11.07;;;27.20;50.00;;;;;;5092677;28;20435;-42
2021/09/08 10:01:44;;;;;;;11.93;10.83;;;27.60;49.50;;;;;;5081962;28;21024;-40
2021/09/08 10:04:10;;;;;;;11.10;10.20;;;27.90;48.80;;;;;;5094989;28;20564;-42
2021/09/08 10:06:38;;;;;;;11.10;10.20;;;27.70;48.60;;;;;;5096751;28;20265;-43
2021/09/08 10:09:05;;;;;;;12.00;11.00;;;27.60;49.90;;;;;;5096982;28;20429;-41
2021/09/08 10:11:33;;;;;;;11.60;10.50;;;28.00;49.40;;;;;;5095889;28;20529;-41
2021/09/08 10:14:06;;;;;;;10.60;9.70;;;28.50;48.80;;;;;;5096316;28;20522;-40
2021/09/08 10:16:34;;;;;;;11.00;10.00;;;28.50;47.80;;;;;;5097048;28;20449;-43
2021/09/08 10:19:04;;;;;;;11.33;10.33;;;28.30;48.10;;;;;;5080475;28;20786;-41
2021/09/08 10:21:30;;;;;;;11.97;10.90;;;28.10;48.50;;;;;;5098552;28;20454;-40
2021/09/08 10:23:59;;;;;;;10.70;9.80;;;28.30;49.20;;;;;;5097635;28;20554;-44
2021/09/08 10:26:30;;;;;;;10.93;9.93;;;28.40;48.50;;;;;;5096727;28;20465;-40
2021/09/08 10:29:05;;;;;;;10.18;9.35;;;28.50;48.40;;;;;;5097912;28;20832;-40
2021/09/08 10:31:34;;;;;;;12.23;10.80;;;28.70;48.10;;;;;;5080298;28;20232;-42
2021/09/08 10:34:00;;;;;;;10.90;9.90;;;28.80;47.80;;;;;;5097395;28;20407;-41
2021/09/08 10:36:26;;;;;;;11.27;10.23;;;28.80;49.00;;;;;;5077996;28;20793;-41
2021/09/08 10:39:09;;;;;;;11.40;10.30;;;29.30;47.60;;;;;;5095365;28;20512;-40
2021/09/08 10:41:38;;;;;;;11.60;10.70;;;29.80;47.10;;;;;;5096357;28;20246;-42
2021/09/08 10:44:04;;;;;;;10.67;9.83;;;30.00;47.00;;;;;;5095822;28;20469;-41
2021/09/08 10:46:49;;;;;;;11.27;10.27;;;30.00;46.90;;;;;;5094695;28;20518;-41
2021/09/08 10:49:37;;;;;;;11.87;10.87;;;30.10;47.90;;;;;;5094125;28;20397;-41
2021/09/08 10:52:06;;;;;;;11.53;10.63;;;30.50;46.60;;;;;;5094471;28;20388;-42
2021/09/08 10:54:32;;;;;;;11.50;10.50;;;30.40;46.40;;;;;;5077210;28;20430;-40
2021/09/08 10:56:58;;;;;;;11.83;10.83;;;30.30;46.80;;;;;;5095450;28;20513;-41
2021/09/08 10:59:24;;;;;;;11.00;10.00;;;30.50;46.10;;;;;;5092746;28;20505;-42
2021/09/08 11:01:53;;;;;;;12.00;10.70;;;30.40;46.40;;;;;;5094262;28;20578;-40
2021/09/08 11:04:19;;;;;;;11.60;10.70;;;30.90;46.40;;;;;;5096323;28;20564;-43
2021/09/08 11:06:49;;;;;;;11.90;10.90;;;30.90;46.00;;;;;;5095042;28;20418;-42
2021/09/08 11:09:16;;;;;;;12.50;11.50;;;31.10;45.70;;;;;;5096139;28;20429;-42
2021/09/08 11:11:56;;;;;;;12.00;11.07;;;31.00;45.90;;;;;;5094326;28;20475;-43
2021/09/08 11:14:45;;;;;;;12.40;11.40;;;31.10;45.60;;;;;;5094862;28;20422;-42
2021/09/08 11:17:18;;;;;;;12.33;11.23;;;31.70;46.20;;;;;;5092551;28;20414;-41
2021/09/08 11:19:55;;;;;;;12.23;11.13;;;32.20;44.40;;;;;;5092751;28;20934;-40
2021/09/08 11:22:21;;;;;;;11.23;10.33;;;32.30;44.50;;;;;;5090736;28;20729;-40
2021/09/08 11:25:10;;;;;;;10.60;9.80;;;32.60;44.30;;;;;;5090379;28;20480;-41
2021/09/08 11:27:38;;;;;;;10.97;10.07;;;33.00;44.90;;;;;;5090359;28;20690;-41
2021/09/08 11:30:12;;;;;;;10.38;9.45;;;33.60;44.00;;;;;;5091201;28;20528;-40
2021/09/08 11:32:55;;;;;;;9.80;9.00;;;34.30;43.20;;;;;;5093616;28;20259;-40
2021/09/08 11:35:50;;;;;;;10.83;9.97;;;35.10;43.70;;;;;;5090643;28;20458;-41
2021/09/08 11:38:24;;;;;;;10.87;9.87;;;35.70;40.20;;;;;;5075441;28;20744;-41
2021/09/08 11:40:58;;;;;;;11.33;10.43;;;35.40;39.80;;;;;;5092321;28;20426;-42
2021/09/08 11:43:36;;;;;;;12.40;10.60;;;35.10;40.30;;;;;;5091818;28;20468;-41
2021/09/08 11:46:14;;;;;;;11.23;10.33;;;34.80;41.80;;;;;;5094457;28;20482;-43
2021/09/08 11:48:40;;;;;;;11.20;10.30;;;35.00;41.40;;;;;;5094862;28;20491;-42
2021/09/08 11:51:09;;;;;;;9.93;9.10;;;34.90;40.30;;;;;;5093697;28;20458;-40
2021/09/08 11:53:35;;;;;;;10.83;9.93;;;34.60;40.70;;;;;;5093026;28;20430;-42
2021/09/08 11:56:21;;;;;;;10.97;9.97;;;34.10;40.90;;;;;;5095681;28;20416;-41
2021/09/08 11:58:55;;;;;;;10.90;10.10;;;33.60;41.70;;;;;;5096192;28;20833;-41
2021/09/08 12:01:22;;;;;;;10.57;9.77;;;33.50;41.40;;;;;;5096690;28;20459;-40
2021/09/08 12:03:59;;;;;;;10.20;9.40;;;33.10;41.70;;;;;;5096930;28;20443;-40
2021/09/08 12:06:29;;;;;;;10.67;9.60;;;33.50;43.50;;;;;;5095806;28;20756;-43
2021/09/08 12:08:55;;;;;;;9.67;8.90;;;34.10;41.50;;;;;;5095077;28;20408;-41
2021/09/08 12:11:53;;;;;;;10.30;9.23;;;34.70;41.40;;;;;;5096541;28;20389;-40
2021/09/08 12:14:40;;;;;;;9.63;8.70;;;35.40;40.30;;;;;;5095348;28;20437;-42
2021/09/08 12:17:09;;;;;;;10.00;9.20;;;35.40;41.20;;;;;;5096292;28;20488;-41
2021/09/08 12:19:38;;;;;;;10.83;9.83;;;35.50;38.80;;;;;;5095447;28;20397;-40
2021/09/08 12:22:07;;;;;;;12.07;10.77;;;35.30;39.90;;;;;;5095833;28;20455;-41
2021/09/08 12:24:43;;;;;;;10.07;9.17;;;35.90;39.70;;;;;;5095060;28;20513;-41
2021/09/08 12:27:40;;;;;;;10.00;9.20;;;36.60;40.20;;;;;;5094811;28;20426;-44
2021/09/08 12:30:14;;;;;;;10.17;9.47;;;37.30;38.80;;;;;;5095191;28;20664;-42